sensor_id;sensor_type;location;lat;lon;timestamp;P1;durP1;ratioP1;P2;durP2;ratioP2
9481;SDS011;4779;48.062;11.672;2023-08-06T00:01:16;4.50;;;4.10;;
9481;SDS011;4779;48.062;11.672;2023-08-06T00:03:46;5.47;;;4.15;;
9481;SDS011;4779;48.062;11.672;2023-08-06T00:06:13;4.97;;;3.85;;
9481;SDS011;4779;48.062;11.672;2023-08-06T00:08:40;4.38;;;3.97;;
9481;SDS011;4779;48.062;11.672;2023-08-06T00:11:07;4.88;;;4.35;;
9481;SDS011;4779;48.062;11.672;2023-08-06T00:13:35;4.20;;;3.88;;
9481;SDS011;4779;48.062;11.672;2023-08-06T00:16:09;6.50;;;4.40;;
9481;SDS011;4779;48.062;11.672;2023-08-06T00:18:36;4.40;;;4.00;;
9481;SDS011;4779;48.062;11.672;2023-08-06T00:21:04;4.20;;;3.90;;
9481;SDS011;4779;48.062;11.672;2023-08-06T00:23:31;4.50;;;4.10;;
9481;SDS011;4779;48.062;11.672;2023-08-06T00:25:58;4.15;;;3.85;;
9481;SDS011;4779;48.062;11.672;2023-08-06T00:28:25;4.18;;;3.75;;
9481;SDS011;4779;48.062;11.672;2023-08-06T00:30:54;5.60;;;4.18;;
9481;SDS011;4779;48.062;11.672;2023-08-06T00:33:21;4.78;;;4.38;;
9481;SDS011;4779;48.062;11.672;2023-08-06T00:35:48;5.65;;;4.13;;
9481;SDS011;4779;48.062;11.672;2023-08-06T00:38:15;6.80;;;4.22;;
9481;SDS011;4779;48.062;11.672;2023-08-06T00:40:43;4.75;;;4.35;;
9481;SDS011;4779;48.062;11.672;2023-08-06T00:43:10;4.32;;;3.80;;
9481;SDS011;4779;48.062;11.672;2023-08-06T00:45:36;4.55;;;4.15;;
9481;SDS011;4779;48.062;11.672;2023-08-06T00:48:05;4.88;;;4.07;;
9481;SDS011;4779;48.062;11.672;2023-08-06T00:50:32;4.40;;;4.00;;
9481;SDS011;4779;48.062;11.672;2023-08-06T00:53:00;4.07;;;3.30;;
9481;SDS011;4779;48.062;11.672;2023-08-06T00:55:28;4.80;;;4.13;;
9481;SDS011;4779;48.062;11.672;2023-08-06T00:57:55;4.07;;;3.67;;
9481;SDS011;4779;48.062;11.672;2023-08-06T01:00:22;4.60;;;4.20;;
9481;SDS011;4779;48.062;11.672;2023-08-06T01:02:51;4.95;;;4.40;;
9481;SDS011;4779;48.062;11.672;2023-08-06T01:05:19;5.07;;;4.35;;
9481;SDS011;4779;48.062;11.672;2023-08-06T01:07:51;5.30;;;4.35;;
9481;SDS011;4779;48.062;11.672;2023-08-06T01:10:27;5.13;;;4.63;;
9481;SDS011;4779;48.062;11.672;2023-08-06T01:13:06;5.43;;;4.45;;
9481;SDS011;4779;48.062;11.672;2023-08-06T01:15:51;5.35;;;4.80;;
9481;SDS011;4779;48.062;11.672;2023-08-06T01:18:22;4.15;;;3.85;;
9481;SDS011;4779;48.062;11.672;2023-08-06T01:20:50;4.70;;;4.18;;
9481;SDS011;4779;48.062;11.672;2023-08-06T01:23:17;4.22;;;3.92;;
9481;SDS011;4779;48.062;11.672;2023-08-06T01:25:46;4.53;;;4.20;;
9481;SDS011;4779;48.062;11.672;2023-08-06T01:28:22;5.07;;;4.20;;
9481;SDS011;4779;48.062;11.672;2023-08-06T01:30:53;5.05;;;4.50;;
9481;SDS011;4779;48.062;11.672;2023-08-06T01:33:22;4.68;;;4.35;;
9481;SDS011;4779;48.062;11.672;2023-08-06T01:35:51;4.93;;;4.40;;
9481;SDS011;4779;48.062;11.672;2023-08-06T01:38:21;4.63;;;4.22;;
9481;SDS011;4779;48.062;11.672;2023-08-06T01:40:48;7.68;;;4.82;;
9481;SDS011;4779;48.062;11.672;2023-08-06T01:43:15;5.50;;;4.35;;
9481;SDS011;4779;48.062;11.672;2023-08-06T01:45:42;5.07;;;4.57;;
9481;SDS011;4779;48.062;11.672;2023-08-06T01:48:09;5.30;;;4.80;;
9481;SDS011;4779;48.062;11.672;2023-08-06T01:50:36;5.03;;;4.60;;
9481;SDS011;4779;48.062;11.672;2023-08-06T01:53:04;5.30;;;4.32;;
9481;SDS011;4779;48.062;11.672;2023-08-06T01:55:31;5.40;;;4.90;;
9481;SDS011;4779;48.062;11.672;2023-08-06T01:57:58;4.93;;;4.43;;
9481;SDS011;4779;48.062;11.672;2023-08-06T02:00:25;4.40;;;4.00;;
9481;SDS011;4779;48.062;11.672;2023-08-06T02:02:53;4.60;;;4.07;;
9481;SDS011;4779;48.062;11.672;2023-08-06T02:05:19;4.75;;;4.32;;
9481;SDS011;4779;48.062;11.672;2023-08-06T02:07:46;4.97;;;3.88;;
9481;SDS011;4779;48.062;11.672;2023-08-06T02:10:15;4.75;;;4.35;;
9481;SDS011;4779;48.062;11.672;2023-08-06T02:12:42;4.15;;;3.75;;
9481;SDS011;4779;48.062;11.672;2023-08-06T02:15:09;4.53;;;4.13;;
9481;SDS011;4779;48.062;11.672;2023-08-06T02:17:36;4.13;;;3.72;;
9481;SDS011;4779;48.062;11.672;2023-08-06T02:20:03;3.42;;;3.03;;
9481;SDS011;4779;48.062;11.672;2023-08-06T02:22:31;3.88;;;3.45;;
9481;SDS011;4779;48.062;11.672;2023-08-06T02:24:58;4.03;;;3.50;;
9481;SDS011;4779;48.062;11.672;2023-08-06T02:27:26;3.53;;;3.00;;
9481;SDS011;4779;48.062;11.672;2023-08-06T02:29:53;3.75;;;3.22;;
9481;SDS011;4779;48.062;11.672;2023-08-06T02:32:20;3.25;;;3.05;;
9481;SDS011;4779;48.062;11.672;2023-08-06T02:34:47;3.70;;;3.00;;
9481;SDS011;4779;48.062;11.672;2023-08-06T02:37:14;3.08;;;2.70;;
9481;SDS011;4779;48.062;11.672;2023-08-06T02:39:41;3.42;;;3.10;;
9481;SDS011;4779;48.062;11.672;2023-08-06T02:42:08;3.50;;;3.20;;
9481;SDS011;4779;48.062;11.672;2023-08-06T02:44:37;3.10;;;2.90;;
9481;SDS011;4779;48.062;11.672;2023-08-06T02:47:04;2.78;;;2.58;;
9481;SDS011;4779;48.062;11.672;2023-08-06T02:49:31;3.60;;;3.20;;
9481;SDS011;4779;48.062;11.672;2023-08-06T02:51:58;3.40;;;3.10;;
9481;SDS011;4779;48.062;11.672;2023-08-06T02:54:25;3.58;;;3.28;;
9481;SDS011;4779;48.062;11.672;2023-08-06T02:56:51;8.07;;;3.15;;
9481;SDS011;4779;48.062;11.672;2023-08-06T02:59:18;2.90;;;2.70;;
9481;SDS011;4779;48.062;11.672;2023-08-06T03:01:47;3.40;;;3.17;;
9481;SDS011;4779;48.062;11.672;2023-08-06T03:04:14;2.95;;;2.70;;
9481;SDS011;4779;48.062;11.672;2023-08-06T03:06:43;3.40;;;3.00;;
9481;SDS011;4779;48.062;11.672;2023-08-06T03:09:10;3.30;;;3.00;;
9481;SDS011;4779;48.062;11.672;2023-08-06T03:11:36;3.17;;;2.85;;
9481;SDS011;4779;48.062;11.672;2023-08-06T03:14:03;3.40;;;3.10;;
9481;SDS011;4779;48.062;11.672;2023-08-06T03:16:30;3.40;;;3.10;;
9481;SDS011;4779;48.062;11.672;2023-08-06T03:18:59;3.35;;;3.05;;
9481;SDS011;4779;48.062;11.672;2023-08-06T03:21:26;5.03;;;3.00;;
9481;SDS011;4779;48.062;11.672;2023-08-06T03:23:53;3.30;;;2.80;;
9481;SDS011;4779;48.062;11.672;2023-08-06T03:26:20;3.07;;;2.80;;
9481;SDS011;4779;48.062;11.672;2023-08-06T03:28:47;3.10;;;2.90;;
9481;SDS011;4779;48.062;11.672;2023-08-06T03:31:14;4.47;;;3.28;;
9481;SDS011;4779;48.062;11.672;2023-08-06T03:33:41;3.63;;;3.15;;
9481;SDS011;4779;48.062;11.672;2023-08-06T03:36:09;3.25;;;2.95;;
9481;SDS011;4779;48.062;11.672;2023-08-06T03:38:36;2.93;;;2.73;;
9481;SDS011;4779;48.062;11.672;2023-08-06T03:41:03;3.22;;;3.03;;
9481;SDS011;4779;48.062;11.672;2023-08-06T03:43:30;3.05;;;2.80;;
9481;SDS011;4779;48.062;11.672;2023-08-06T03:45:57;3.15;;;2.53;;
9481;SDS011;4779;48.062;11.672;2023-08-06T03:48:24;3.63;;;2.83;;
9481;SDS011;4779;48.062;11.672;2023-08-06T03:50:51;2.70;;;2.50;;
9481;SDS011;4779;48.062;11.672;2023-08-06T03:53:20;3.15;;;2.80;;
9481;SDS011;4779;48.062;11.672;2023-08-06T03:55:47;3.17;;;2.63;;
9481;SDS011;4779;48.062;11.672;2023-08-06T03:58:14;2.88;;;2.50;;
9481;SDS011;4779;48.062;11.672;2023-08-06T04:00:41;2.60;;;2.40;;
9481;SDS011;4779;48.062;11.672;2023-08-06T04:03:08;4.68;;;2.72;;
9481;SDS011;4779;48.062;11.672;2023-08-06T04:05:35;2.78;;;2.58;;
9481;SDS011;4779;48.062;11.672;2023-08-06T04:08:02;2.70;;;2.50;;
9481;SDS011;4779;48.062;11.672;2023-08-06T04:10:30;2.35;;;2.17;;
9481;SDS011;4779;48.062;11.672;2023-08-06T04:12:57;2.75;;;2.55;;
9481;SDS011;4779;48.062;11.672;2023-08-06T04:15:24;3.20;;;2.40;;
9481;SDS011;4779;48.062;11.672;2023-08-06T04:17:51;2.53;;;2.22;;
9481;SDS011;4779;48.062;11.672;2023-08-06T04:20:18;2.20;;;2.10;;
9481;SDS011;4779;48.062;11.672;2023-08-06T04:22:45;2.60;;;2.40;;
9481;SDS011;4779;48.062;11.672;2023-08-06T04:25:12;2.58;;;2.38;;
9481;SDS011;4779;48.062;11.672;2023-08-06T04:27:41;3.78;;;2.50;;
9481;SDS011;4779;48.062;11.672;2023-08-06T04:30:08;3.03;;;2.20;;
9481;SDS011;4779;48.062;11.672;2023-08-06T04:32:37;2.88;;;2.28;;
9481;SDS011;4779;48.062;11.672;2023-08-06T04:35:04;2.55;;;2.35;;
9481;SDS011;4779;48.062;11.672;2023-08-06T04:37:32;2.50;;;2.30;;
9481;SDS011;4779;48.062;11.672;2023-08-06T04:39:59;2.72;;;2.47;;
9481;SDS011;4779;48.062;11.672;2023-08-06T04:42:26;2.53;;;2.33;;
9481;SDS011;4779;48.062;11.672;2023-08-06T04:44:54;2.67;;;2.40;;
9481;SDS011;4779;48.062;11.672;2023-08-06T04:47:21;2.47;;;2.30;;
9481;SDS011;4779;48.062;11.672;2023-08-06T04:49:48;3.05;;;2.28;;
9481;SDS011;4779;48.062;11.672;2023-08-06T04:52:15;3.00;;;2.22;;
9481;SDS011;4779;48.062;11.672;2023-08-06T04:54:43;2.47;;;2.20;;
9481;SDS011;4779;48.062;11.672;2023-08-06T04:57:10;2.35;;;2.22;;
9481;SDS011;4779;48.062;11.672;2023-08-06T04:59:37;3.08;;;2.10;;
9481;SDS011;4779;48.062;11.672;2023-08-06T05:02:06;3.53;;;2.15;;
9481;SDS011;4779;48.062;11.672;2023-08-06T05:04:33;2.58;;;2.25;;
9481;SDS011;4779;48.062;11.672;2023-08-06T05:07:00;4.10;;;2.20;;
9481;SDS011;4779;48.062;11.672;2023-08-06T05:09:27;4.47;;;2.40;;
9481;SDS011;4779;48.062;11.672;2023-08-06T05:11:54;2.70;;;2.20;;
9481;SDS011;4779;48.062;11.672;2023-08-06T05:14:21;2.30;;;2.10;;
9481;SDS011;4779;48.062;11.672;2023-08-06T05:16:48;3.10;;;2.30;;
9481;SDS011;4779;48.062;11.672;2023-08-06T05:19:16;3.17;;;2.17;;
9481;SDS011;4779;48.062;11.672;2023-08-06T05:21:43;2.25;;;2.05;;
9481;SDS011;4779;48.062;11.672;2023-08-06T05:24:10;3.00;;;2.38;;
9481;SDS011;4779;48.062;11.672;2023-08-06T05:26:38;2.97;;;2.10;;
9481;SDS011;4779;48.062;11.672;2023-08-06T05:29:05;2.20;;;2.05;;
9481;SDS011;4779;48.062;11.672;2023-08-06T05:31:32;2.33;;;2.13;;
9481;SDS011;4779;48.062;11.672;2023-08-06T05:33:59;2.30;;;2.03;;
9481;SDS011;4779;48.062;11.672;2023-08-06T05:36:31;2.40;;;2.20;;
9481;SDS011;4779;48.062;11.672;2023-08-06T05:38:58;2.33;;;2.13;;
9481;SDS011;4779;48.062;11.672;2023-08-06T05:41:25;2.15;;;1.90;;
9481;SDS011;4779;48.062;11.672;2023-08-06T05:43:52;2.95;;;1.88;;
9481;SDS011;4779;48.062;11.672;2023-08-06T05:46:19;2.22;;;2.03;;
9481;SDS011;4779;48.062;11.672;2023-08-06T05:48:46;2.15;;;1.90;;
9481;SDS011;4779;48.062;11.672;2023-08-06T05:51:15;2.72;;;2.17;;
9481;SDS011;4779;48.062;11.672;2023-08-06T05:53:43;2.53;;;2.33;;
9481;SDS011;4779;48.062;11.672;2023-08-06T05:56:11;2.83;;;2.00;;
9481;SDS011;4779;48.062;11.672;2023-08-06T05:58:38;3.17;;;1.95;;
9481;SDS011;4779;48.062;11.672;2023-08-06T06:01:04;2.00;;;1.80;;
9481;SDS011;4779;48.062;11.672;2023-08-06T06:03:31;3.42;;;2.15;;
9481;SDS011;4779;48.062;11.672;2023-08-06T06:05:59;2.72;;;2.38;;
9481;SDS011;4779;48.062;11.672;2023-08-06T06:08:27;2.05;;;1.95;;
9481;SDS011;4779;48.062;11.672;2023-08-06T06:10:56;2.08;;;1.90;;
9481;SDS011;4779;48.062;11.672;2023-08-06T06:13:23;2.65;;;1.90;;
9481;SDS011;4779;48.062;11.672;2023-08-06T06:15:50;2.38;;;2.03;;
9481;SDS011;4779;48.062;11.672;2023-08-06T06:18:20;3.42;;;2.13;;
9481;SDS011;4779;48.062;11.672;2023-08-06T06:20:47;2.83;;;2.08;;
9481;SDS011;4779;48.062;11.672;2023-08-06T06:23:14;1.80;;;1.70;;
9481;SDS011;4779;48.062;11.672;2023-08-06T06:25:41;2.28;;;1.80;;
9481;SDS011;4779;48.062;11.672;2023-08-06T06:28:11;2.97;;;1.90;;
9481;SDS011;4779;48.062;11.672;2023-08-06T06:30:38;1.85;;;1.70;;
9481;SDS011;4779;48.062;11.672;2023-08-06T06:33:05;1.70;;;1.60;;
9481;SDS011;4779;48.062;11.672;2023-08-06T06:35:32;2.65;;;1.75;;
9481;SDS011;4779;48.062;11.672;2023-08-06T06:37:59;2.17;;;1.58;;
9481;SDS011;4779;48.062;11.672;2023-08-06T06:40:26;1.80;;;1.67;;
9481;SDS011;4779;48.062;11.672;2023-08-06T06:42:53;1.92;;;1.70;;
9481;SDS011;4779;48.062;11.672;2023-08-06T06:45:22;2.30;;;1.75;;
9481;SDS011;4779;48.062;11.672;2023-08-06T06:47:49;1.95;;;1.80;;
9481;SDS011;4779;48.062;11.672;2023-08-06T06:50:16;2.28;;;1.60;;
9481;SDS011;4779;48.062;11.672;2023-08-06T06:52:43;1.73;;;1.60;;
9481;SDS011;4779;48.062;11.672;2023-08-06T06:55:10;2.00;;;1.70;;
9481;SDS011;4779;48.062;11.672;2023-08-06T06:57:37;1.52;;;1.30;;
9481;SDS011;4779;48.062;11.672;2023-08-06T07:00:04;2.20;;;2.00;;
9481;SDS011;4779;48.062;11.672;2023-08-06T07:02:34;2.75;;;1.40;;
9481;SDS011;4779;48.062;11.672;2023-08-06T07:05:01;1.70;;;1.60;;
9481;SDS011;4779;48.062;11.672;2023-08-06T07:07:28;2.95;;;1.63;;
9481;SDS011;4779;48.062;11.672;2023-08-06T07:09:55;1.48;;;1.27;;
9481;SDS011;4779;48.062;11.672;2023-08-06T07:12:22;1.92;;;1.70;;
9481;SDS011;4779;48.062;11.672;2023-08-06T07:14:49;1.73;;;1.45;;
9481;SDS011;4779;48.062;11.672;2023-08-06T07:17:16;1.65;;;1.55;;
9481;SDS011;4779;48.062;11.672;2023-08-06T07:19:48;2.35;;;1.40;;
9481;SDS011;4779;48.062;11.672;2023-08-06T07:22:15;2.05;;;1.00;;
9481;SDS011;4779;48.062;11.672;2023-08-06T07:24:42;3.10;;;1.15;;
9481;SDS011;4779;48.062;11.672;2023-08-06T07:27:09;1.55;;;1.20;;
9481;SDS011;4779;48.062;11.672;2023-08-06T07:29:36;1.85;;;1.13;;
9481;SDS011;4779;48.062;11.672;2023-08-06T07:32:03;2.00;;;1.25;;
9481;SDS011;4779;48.062;11.672;2023-08-06T07:34:32;1.80;;;1.17;;
9481;SDS011;4779;48.062;11.672;2023-08-06T07:37:01;1.30;;;1.00;;
9481;SDS011;4779;48.062;11.672;2023-08-06T07:39:28;1.17;;;1.08;;
9481;SDS011;4779;48.062;11.672;2023-08-06T07:41:55;2.50;;;1.30;;
9481;SDS011;4779;48.062;11.672;2023-08-06T07:44:22;1.48;;;1.10;;
9481;SDS011;4779;48.062;11.672;2023-08-06T07:46:49;2.17;;;1.25;;
9481;SDS011;4779;48.062;11.672;2023-08-06T07:49:20;1.98;;;1.10;;
9481;SDS011;4779;48.062;11.672;2023-08-06T07:51:48;4.07;;;1.42;;
9481;SDS011;4779;48.062;11.672;2023-08-06T07:54:18;1.35;;;1.25;;
9481;SDS011;4779;48.062;11.672;2023-08-06T07:56:48;1.30;;;1.20;;
9481;SDS011;4779;48.062;11.672;2023-08-06T07:59:15;2.42;;;1.60;;
9481;SDS011;4779;48.062;11.672;2023-08-06T08:01:42;1.92;;;1.30;;
9481;SDS011;4779;48.062;11.672;2023-08-06T08:04:12;1.95;;;1.40;;
9481;SDS011;4779;48.062;11.672;2023-08-06T08:06:39;2.15;;;1.20;;
9481;SDS011;4779;48.062;11.672;2023-08-06T08:09:06;1.58;;;1.00;;
9481;SDS011;4779;48.062;11.672;2023-08-06T08:11:34;2.33;;;1.33;;
9481;SDS011;4779;48.062;11.672;2023-08-06T08:14:01;2.60;;;1.38;;
9481;SDS011;4779;48.062;11.672;2023-08-06T08:16:31;2.35;;;1.63;;
9481;SDS011;4779;48.062;11.672;2023-08-06T08:18:58;1.35;;;0.93;;
9481;SDS011;4779;48.062;11.672;2023-08-06T08:21:26;2.38;;;1.17;;
9481;SDS011;4779;48.062;11.672;2023-08-06T08:23:56;1.50;;;1.08;;
9481;SDS011;4779;48.062;11.672;2023-08-06T08:26:24;1.75;;;0.95;;
9481;SDS011;4779;48.062;11.672;2023-08-06T08:28:55;2.42;;;1.40;;
9481;SDS011;4779;48.062;11.672;2023-08-06T08:31:27;1.35;;;0.60;;
9481;SDS011;4779;48.062;11.672;2023-08-06T08:33:54;2.42;;;1.10;;
9481;SDS011;4779;48.062;11.672;2023-08-06T08:36:21;3.17;;;1.00;;
9481;SDS011;4779;48.062;11.672;2023-08-06T08:38:48;1.83;;;0.90;;
9481;SDS011;4779;48.062;11.672;2023-08-06T08:41:18;0.75;;;0.70;;
9481;SDS011;4779;48.062;11.672;2023-08-06T08:43:46;1.63;;;0.90;;
9481;SDS011;4779;48.062;11.672;2023-08-06T08:46:17;2.25;;;0.75;;
9481;SDS011;4779;48.062;11.672;2023-08-06T08:48:45;1.63;;;1.00;;
9481;SDS011;4779;48.062;11.672;2023-08-06T08:51:13;1.30;;;0.90;;
9481;SDS011;4779;48.062;11.672;2023-08-06T08:53:41;1.40;;;0.60;;
9481;SDS011;4779;48.062;11.672;2023-08-06T08:56:10;3.17;;;0.60;;
9481;SDS011;4779;48.062;11.672;2023-08-06T08:58:40;1.23;;;0.75;;
9481;SDS011;4779;48.062;11.672;2023-08-06T09:01:07;2.17;;;0.63;;
9481;SDS011;4779;48.062;11.672;2023-08-06T09:03:36;1.38;;;1.10;;
9481;SDS011;4779;48.062;11.672;2023-08-06T09:06:05;1.33;;;0.57;;
9481;SDS011;4779;48.062;11.672;2023-08-06T09:08:34;1.38;;;0.50;;
9481;SDS011;4779;48.062;11.672;2023-08-06T09:11:08;1.35;;;0.40;;
9481;SDS011;4779;48.062;11.672;2023-08-06T09:13:36;0.40;;;0.30;;
9481;SDS011;4779;48.062;11.672;2023-08-06T09:16:03;0.95;;;0.52;;
9481;SDS011;4779;48.062;11.672;2023-08-06T09:18:30;0.90;;;0.30;;
9481;SDS011;4779;48.062;11.672;2023-08-06T09:20:59;0.88;;;0.40;;
9481;SDS011;4779;48.062;11.672;2023-08-06T09:23:29;2.75;;;0.60;;
9481;SDS011;4779;48.062;11.672;2023-08-06T09:25:56;1.75;;;0.50;;
9481;SDS011;4779;48.062;11.672;2023-08-06T09:28:23;2.00;;;0.30;;
9481;SDS011;4779;48.062;11.672;2023-08-06T09:30:52;1.92;;;0.38;;
9481;SDS011;4779;48.062;11.672;2023-08-06T09:33:20;0.60;;;0.28;;
9481;SDS011;4779;48.062;11.672;2023-08-06T09:35:49;0.30;;;0.30;;
9481;SDS011;4779;48.062;11.672;2023-08-06T09:38:17;1.38;;;0.63;;
9481;SDS011;4779;48.062;11.672;2023-08-06T09:40:44;0.47;;;0.30;;
9481;SDS011;4779;48.062;11.672;2023-08-06T09:43:11;2.72;;;0.50;;
9481;SDS011;4779;48.062;11.672;2023-08-06T09:45:39;1.83;;;0.43;;
9481;SDS011;4779;48.062;11.672;2023-08-06T09:48:07;0.63;;;0.30;;
9481;SDS011;4779;48.062;11.672;2023-08-06T09:50:36;0.40;;;0.30;;
9481;SDS011;4779;48.062;11.672;2023-08-06T09:53:04;2.25;;;0.50;;
9481;SDS011;4779;48.062;11.672;2023-08-06T09:55:34;0.50;;;0.40;;
9481;SDS011;4779;48.062;11.672;2023-08-06T09:58:01;1.00;;;0.40;;
9481;SDS011;4779;48.062;11.672;2023-08-06T10:00:30;1.05;;;0.30;;
9481;SDS011;4779;48.062;11.672;2023-08-06T10:02:59;0.45;;;0.20;;
9481;SDS011;4779;48.062;11.672;2023-08-06T10:05:27;0.10;;;0.10;;
9481;SDS011;4779;48.062;11.672;2023-08-06T10:07:54;0.03;;;0.03;;
9481;SDS011;4779;48.062;11.672;2023-08-06T10:10:23;1.48;;;0.20;;
9481;SDS011;4779;48.062;11.672;2023-08-06T10:12:55;2.63;;;0.28;;
9481;SDS011;4779;48.062;11.672;2023-08-06T10:15:25;0.93;;;0.30;;
9481;SDS011;4779;48.062;11.672;2023-08-06T10:17:56;1.65;;;0.30;;
9481;SDS011;4779;48.062;11.672;2023-08-06T10:20:24;1.33;;;0.30;;
9481;SDS011;4779;48.062;11.672;2023-08-06T10:22:59;0.38;;;0.30;;
9481;SDS011;4779;48.062;11.672;2023-08-06T10:25:30;0.38;;;0.38;;
9481;SDS011;4779;48.062;11.672;2023-08-06T10:27:59;1.88;;;0.25;;
9481;SDS011;4779;48.062;11.672;2023-08-06T10:30:27;0.40;;;0.10;;
9481;SDS011;4779;48.062;11.672;2023-08-06T10:32:56;0.22;;;0.20;;
9481;SDS011;4779;48.062;11.672;2023-08-06T10:35:33;1.23;;;0.30;;
9481;SDS011;4779;48.062;11.672;2023-08-06T10:38:06;0.57;;;0.20;;
9481;SDS011;4779;48.062;11.672;2023-08-06T10:40:35;0.08;;;0.08;;
9481;SDS011;4779;48.062;11.672;2023-08-06T10:43:04;0.28;;;0.10;;
9481;SDS011;4779;48.062;11.672;2023-08-06T10:45:36;2.17;;;0.38;;
9481;SDS011;4779;48.062;11.672;2023-08-06T10:48:04;0.32;;;0.30;;
9481;SDS011;4779;48.062;11.672;2023-08-06T10:50:31;0.10;;;0.10;;
9481;SDS011;4779;48.062;11.672;2023-08-06T10:53:00;0.20;;;0.20;;
9481;SDS011;4779;48.062;11.672;2023-08-06T10:55:31;0.20;;;0.13;;
9481;SDS011;4779;48.062;11.672;2023-08-06T10:57:58;0.13;;;0.10;;
9481;SDS011;4779;48.062;11.672;2023-08-06T11:00:26;1.98;;;0.20;;
9481;SDS011;4779;48.062;11.672;2023-08-06T11:02:54;0.63;;;0.30;;
9481;SDS011;4779;48.062;11.672;2023-08-06T11:05:21;0.30;;;0.30;;
9481;SDS011;4779;48.062;11.672;2023-08-06T11:07:48;0.20;;;0.20;;
9481;SDS011;4779;48.062;11.672;2023-08-06T11:10:16;0.47;;;0.20;;
9481;SDS011;4779;48.062;11.672;2023-08-06T11:12:43;0.20;;;0.20;;
9481;SDS011;4779;48.062;11.672;2023-08-06T11:15:10;1.00;;;0.28;;
9481;SDS011;4779;48.062;11.672;2023-08-06T11:17:39;1.20;;;0.20;;
9481;SDS011;4779;48.062;11.672;2023-08-06T11:20:08;0.70;;;0.20;;
9481;SDS011;4779;48.062;11.672;2023-08-06T11:22:36;0.10;;;0.10;;
9481;SDS011;4779;48.062;11.672;2023-08-06T11:25:04;0.25;;;0.25;;
9481;SDS011;4779;48.062;11.672;2023-08-06T11:27:32;0.20;;;0.20;;
9481;SDS011;4779;48.062;11.672;2023-08-06T11:30:00;0.10;;;0.10;;
9481;SDS011;4779;48.062;11.672;2023-08-06T11:32:27;0.45;;;0.20;;
9481;SDS011;4779;48.062;11.672;2023-08-06T11:34:55;1.00;;;0.13;;
9481;SDS011;4779;48.062;11.672;2023-08-06T11:37:22;1.55;;;0.10;;
9481;SDS011;4779;48.062;11.672;2023-08-06T11:39:55;0.10;;;0.10;;
9481;SDS011;4779;48.062;11.672;2023-08-06T11:42:25;0.68;;;0.20;;
9481;SDS011;4779;48.062;11.672;2023-08-06T11:44:52;2.08;;;0.20;;
9481;SDS011;4779;48.062;11.672;2023-08-06T11:47:23;0.20;;;0.20;;
9481;SDS011;4779;48.062;11.672;2023-08-06T11:49:50;0.28;;;0.13;;
9481;SDS011;4779;48.062;11.672;2023-08-06T11:52:19;0.47;;;0.20;;
9481;SDS011;4779;48.062;11.672;2023-08-06T11:54:59;0.20;;;0.20;;
9481;SDS011;4779;48.062;11.672;2023-08-06T11:57:29;0.20;;;0.20;;
9481;SDS011;4779;48.062;11.672;2023-08-06T12:00:01;0.75;;;0.22;;
9481;SDS011;4779;48.062;11.672;2023-08-06T12:02:31;0.43;;;0.20;;
9481;SDS011;4779;48.062;11.672;2023-08-06T12:05:02;0.30;;;0.30;;
9481;SDS011;4779;48.062;11.672;2023-08-06T12:07:32;0.60;;;0.20;;
9481;SDS011;4779;48.062;11.672;2023-08-06T12:10:02;0.30;;;0.28;;
9481;SDS011;4779;48.062;11.672;2023-08-06T12:12:30;0.20;;;0.20;;
9481;SDS011;4779;48.062;11.672;2023-08-06T12:14:57;0.55;;;0.20;;
9481;SDS011;4779;48.062;11.672;2023-08-06T12:17:24;0.57;;;0.25;;
9481;SDS011;4779;48.062;11.672;2023-08-06T12:19:52;0.22;;;0.22;;
9481;SDS011;4779;48.062;11.672;2023-08-06T12:22:19;0.30;;;0.30;;
9481;SDS011;4779;48.062;11.672;2023-08-06T12:24:47;0.45;;;0.25;;
9481;SDS011;4779;48.062;11.672;2023-08-06T12:27:14;0.30;;;0.22;;
9481;SDS011;4779;48.062;11.672;2023-08-06T12:29:42;0.20;;;0.20;;
9481;SDS011;4779;48.062;11.672;2023-08-06T12:32:09;0.13;;;0.13;;
9481;SDS011;4779;48.062;11.672;2023-08-06T12:34:37;0.63;;;0.20;;
9481;SDS011;4779;48.062;11.672;2023-08-06T12:37:04;0.32;;;0.30;;
9481;SDS011;4779;48.062;11.672;2023-08-06T12:39:32;1.65;;;0.20;;
9481;SDS011;4779;48.062;11.672;2023-08-06T12:42:01;0.40;;;0.10;;
9481;SDS011;4779;48.062;11.672;2023-08-06T12:44:29;0.82;;;0.25;;
9481;SDS011;4779;48.062;11.672;2023-08-06T12:46:56;0.73;;;0.38;;
9481;SDS011;4779;48.062;11.672;2023-08-06T12:49:25;0.35;;;0.30;;
9481;SDS011;4779;48.062;11.672;2023-08-06T12:51:52;0.22;;;0.10;;
9481;SDS011;4779;48.062;11.672;2023-08-06T12:54:21;0.52;;;0.30;;
9481;SDS011;4779;48.062;11.672;2023-08-06T12:56:48;1.35;;;0.13;;
9481;SDS011;4779;48.062;11.672;2023-08-06T12:59:18;1.08;;;0.20;;
9481;SDS011;4779;48.062;11.672;2023-08-06T13:01:45;1.70;;;0.30;;
9481;SDS011;4779;48.062;11.672;2023-08-06T13:04:13;1.98;;;0.17;;
9481;SDS011;4779;48.062;11.672;2023-08-06T13:06:40;0.75;;;0.20;;
9481;SDS011;4779;48.062;11.672;2023-08-06T13:09:08;0.20;;;0.10;;
9481;SDS011;4779;48.062;11.672;2023-08-06T13:11:35;0.25;;;0.10;;
9481;SDS011;4779;48.062;11.672;2023-08-06T13:14:06;0.30;;;0.20;;
9481;SDS011;4779;48.062;11.672;2023-08-06T13:16:39;0.28;;;0.20;;
9481;SDS011;4779;48.062;11.672;2023-08-06T13:19:07;0.10;;;0.10;;
9481;SDS011;4779;48.062;11.672;2023-08-06T13:21:35;0.13;;;0.13;;
9481;SDS011;4779;48.062;11.672;2023-08-06T13:24:18;0.20;;;0.00;;
9481;SDS011;4779;48.062;11.672;2023-08-06T13:26:46;0.60;;;0.43;;
9481;SDS011;4779;48.062;11.672;2023-08-06T13:29:13;0.88;;;0.47;;
9481;SDS011;4779;48.062;11.672;2023-08-06T13:31:49;0.47;;;0.47;;
9481;SDS011;4779;48.062;11.672;2023-08-06T13:34:25;0.70;;;0.70;;
9481;SDS011;4779;48.062;11.672;2023-08-06T13:36:52;1.10;;;1.00;;
9481;SDS011;4779;48.062;11.672;2023-08-06T13:39:19;0.55;;;0.50;;
9481;SDS011;4779;48.062;11.672;2023-08-06T13:41:46;0.55;;;0.47;;
9481;SDS011;4779;48.062;11.672;2023-08-06T13:44:13;0.85;;;0.35;;
9481;SDS011;4779;48.062;11.672;2023-08-06T13:46:41;0.50;;;0.40;;
9481;SDS011;4779;48.062;11.672;2023-08-06T13:49:10;0.32;;;0.32;;
9481;SDS011;4779;48.062;11.672;2023-08-06T13:51:37;0.80;;;0.80;;
9481;SDS011;4779;48.062;11.672;2023-08-06T13:54:04;0.60;;;0.20;;
9481;SDS011;4779;48.062;11.672;2023-08-06T13:56:32;0.50;;;0.50;;
9481;SDS011;4779;48.062;11.672;2023-08-06T13:58:59;0.30;;;0.30;;
9481;SDS011;4779;48.062;11.672;2023-08-06T14:01:26;1.40;;;0.65;;
9481;SDS011;4779;48.062;11.672;2023-08-06T14:03:56;1.33;;;1.00;;
9481;SDS011;4779;48.062;11.672;2023-08-06T14:06:25;0.77;;;0.60;;
9481;SDS011;4779;48.062;11.672;2023-08-06T14:08:52;0.88;;;0.35;;
9481;SDS011;4779;48.062;11.672;2023-08-06T14:11:19;1.40;;;1.08;;
9481;SDS011;4779;48.062;11.672;2023-08-06T14:13:46;0.95;;;0.75;;
9481;SDS011;4779;48.062;11.672;2023-08-06T14:16:16;1.00;;;0.30;;
9481;SDS011;4779;48.062;11.672;2023-08-06T14:18:43;2.10;;;0.60;;
9481;SDS011;4779;48.062;11.672;2023-08-06T14:21:10;0.40;;;0.40;;
9481;SDS011;4779;48.062;11.672;2023-08-06T14:23:39;0.32;;;0.32;;
9481;SDS011;4779;48.062;11.672;2023-08-06T14:26:06;0.55;;;0.30;;
9481;SDS011;4779;48.062;11.672;2023-08-06T14:28:35;0.43;;;0.43;;
9481;SDS011;4779;48.062;11.672;2023-08-06T14:31:02;0.55;;;0.30;;
9481;SDS011;4779;48.062;11.672;2023-08-06T14:33:29;1.00;;;0.40;;
9481;SDS011;4779;48.062;11.672;2023-08-06T14:35:56;1.00;;;0.35;;
9481;SDS011;4779;48.062;11.672;2023-08-06T14:38:23;1.27;;;0.40;;
9481;SDS011;4779;48.062;11.672;2023-08-06T14:40:52;0.30;;;0.30;;
9481;SDS011;4779;48.062;11.672;2023-08-06T14:43:19;0.45;;;0.20;;
9481;SDS011;4779;48.062;11.672;2023-08-06T14:45:46;2.43;;;0.50;;
9481;SDS011;4779;48.062;11.672;2023-08-06T14:48:13;0.20;;;0.20;;
9481;SDS011;4779;48.062;11.672;2023-08-06T14:50:40;0.98;;;0.40;;
9481;SDS011;4779;48.062;11.672;2023-08-06T14:53:07;1.07;;;0.50;;
9481;SDS011;4779;48.062;11.672;2023-08-06T14:55:35;0.32;;;0.32;;
9481;SDS011;4779;48.062;11.672;2023-08-06T14:58:04;0.50;;;0.50;;
9481;SDS011;4779;48.062;11.672;2023-08-06T15:00:31;0.50;;;0.50;;
9481;SDS011;4779;48.062;11.672;2023-08-06T15:02:58;1.93;;;0.50;;
9481;SDS011;4779;48.062;11.672;2023-08-06T15:05:25;1.00;;;0.50;;